createdAt,value
2022-12-08T00:01:20.564Z,10.38
2022-12-08T00:03:47.514Z,8.95
2022-12-08T00:06:49.044Z,12.27
2022-12-08T00:09:41.943Z,12.00
2022-12-08T00:12:17.621Z,10.52
2022-12-08T00:14:47.628Z,13.00
2022-12-08T00:17:16.330Z,13.73
2022-12-08T00:19:44.188Z,15.00
2022-12-08T00:22:12.912Z,15.35
2022-12-08T00:24:40.864Z,11.75
2022-12-08T00:27:09.813Z,13.07
2022-12-08T00:29:36.645Z,16.15
2022-12-08T00:32:03.846Z,14.95
2022-12-08T00:34:31.913Z,16.63
2022-12-08T00:36:58.718Z,14.10
2022-12-08T00:39:25.418Z,14.50
2022-12-08T00:42:10.946Z,17.48
2022-12-08T00:44:37.658Z,15.85
2022-12-08T00:47:04.907Z,13.55
2022-12-08T00:49:31.599Z,16.48
2022-12-08T00:51:58.371Z,12.85
2022-12-08T00:54:25.253Z,15.98
2022-12-08T00:56:52.085Z,18.52
2022-12-08T00:59:19.177Z,15.50
2022-12-08T01:01:46.818Z,14.15
2022-12-08T01:04:16.160Z,18.35
2022-12-08T01:06:45.816Z,17.73
2022-12-08T01:09:14.620Z,15.48
2022-12-08T01:11:41.565Z,13.10
2022-12-08T01:14:08.286Z,16.50
2022-12-08T01:16:37.241Z,16.73
2022-12-08T01:19:04.859Z,14.43
2022-12-08T01:21:31.733Z,15.95
2022-12-08T01:24:00.189Z,15.77
2022-12-08T01:26:27.141Z,14.40
2022-12-08T01:28:54.079Z,15.52
2022-12-08T01:31:22.184Z,16.13
2022-12-08T01:33:49.759Z,16.05
2022-12-08T01:36:28.149Z,20.70
2022-12-08T01:38:57.923Z,18.40
2022-12-08T01:41:27.906Z,17.35
2022-12-08T01:44:02.023Z,16.65
2022-12-08T01:46:31.524Z,19.98
2022-12-08T01:49:05.552Z,16.80
2022-12-08T01:51:38.892Z,17.42
2022-12-08T01:54:07.358Z,19.50
2022-12-08T01:56:54.159Z,19.10
2022-12-08T01:59:21.397Z,18.02
2022-12-08T02:01:48.185Z,18.35
2022-12-08T02:04:14.926Z,14.80
2022-12-08T02:06:44.959Z,18.60
2022-12-08T02:09:13.398Z,18.90
2022-12-08T02:11:40.114Z,14.98
2022-12-08T02:14:12.254Z,21.25
2022-12-08T02:17:20.123Z,15.73
2022-12-08T02:20:01.993Z,17.27
2022-12-08T02:22:44.157Z,16.48
2022-12-08T02:25:45.045Z,14.68
2022-12-08T02:28:45.325Z,20.88
2022-12-08T02:31:33.251Z,20.73
2022-12-08T02:34:09.178Z,13.43
2022-12-08T02:39:29.384Z,15.05
2022-12-08T02:42:20.553Z,16.25
2022-12-08T02:44:59.656Z,17.20
2022-12-08T02:47:28.400Z,19.30
2022-12-08T02:49:56.656Z,19.08
2022-12-08T02:52:23.245Z,19.65
2022-12-08T02:55:07.122Z,16.77
2022-12-08T02:57:45.659Z,20.08
2022-12-08T03:00:18.831Z,15.77
2022-12-08T03:03:06.848Z,19.25
2022-12-08T03:06:01.564Z,17.30
2022-12-08T03:08:51.396Z,18.50
2022-12-08T03:11:47.140Z,20.48
2022-12-08T03:14:18.057Z,20.23
2022-12-08T03:16:48.947Z,20.92
2022-12-08T03:19:23.661Z,17.38
2022-12-08T03:21:53.171Z,19.83
2022-12-08T03:24:23.302Z,22.77
2022-12-08T03:27:02.678Z,19.20
2022-12-08T03:29:32.947Z,20.58
2022-12-08T03:32:35.102Z,20.85
2022-12-08T03:35:07.133Z,22.60
2022-12-08T03:37:36.849Z,22.00
2022-12-08T03:40:06.174Z,17.17
2022-12-08T03:42:33.070Z,21.65
2022-12-08T03:44:59.895Z,17.80
2022-12-08T03:47:26.623Z,20.40
2022-12-08T03:49:54.300Z,18.35
2022-12-08T03:52:21.143Z,18.45
2022-12-08T03:54:48.357Z,16.05
2022-12-08T03:57:15.023Z,17.10
2022-12-08T03:59:41.809Z,16.92
2022-12-08T04:02:08.485Z,18.10
2022-12-08T04:04:35.211Z,16.42
2022-12-08T04:07:01.968Z,15.13
2022-12-08T04:09:28.601Z,13.68
2022-12-08T04:11:55.327Z,17.85
2022-12-08T04:14:25.932Z,14.98
2022-12-08T04:16:52.640Z,14.63
2022-12-08T04:19:19.869Z,16.50
2022-12-08T04:21:46.611Z,16.75
2022-12-08T04:24:13.255Z,14.70
2022-12-08T04:26:39.887Z,15.98
2022-12-08T04:29:06.629Z,15.82
2022-12-08T04:31:33.380Z,12.75
2022-12-08T04:34:00.177Z,13.05
2022-12-08T04:36:26.976Z,15.02
2022-12-08T04:38:54.102Z,15.02
2022-12-08T04:41:21.207Z,12.75
2022-12-08T04:43:48.023Z,14.18
2022-12-08T04:46:14.700Z,16.75
2022-12-08T04:48:41.634Z,10.10
2022-12-08T04:51:21.662Z,17.42
2022-12-08T04:53:48.466Z,14.43
2022-12-08T04:56:18.047Z,19.85
2022-12-08T04:58:45.772Z,16.33
2022-12-08T05:01:13.444Z,16.85
2022-12-08T05:03:40.159Z,17.90
2022-12-08T05:06:07.562Z,15.70
2022-12-08T05:08:35.112Z,14.27
2022-12-08T05:11:04.325Z,12.73
2022-12-08T05:13:31.589Z,16.58
2022-12-08T05:16:10.704Z,15.48
2022-12-08T05:18:37.986Z,11.80
2022-12-08T05:21:07.001Z,13.60
2022-12-08T05:23:34.367Z,14.68
2022-12-08T05:26:01.578Z,13.05
2022-12-08T05:28:44.286Z,14.77
2022-12-08T05:31:13.234Z,16.88
2022-12-08T05:33:40.678Z,11.50
2022-12-08T05:36:08.536Z,13.57
2022-12-08T05:38:35.583Z,13.27
2022-12-08T05:41:02.730Z,11.60
2022-12-08T05:43:29.544Z,12.15
2022-12-08T05:45:56.626Z,15.98
2022-12-08T05:48:23.355Z,12.65
2022-12-08T05:50:51.225Z,14.10
2022-12-08T05:53:20.331Z,11.80
2022-12-08T05:55:47.936Z,9.57
2022-12-08T05:58:19.907Z,12.77
2022-12-08T06:00:47.727Z,11.90
2022-12-08T06:03:16.444Z,14.65
2022-12-08T06:05:45.021Z,13.52
2022-12-08T06:08:12.580Z,15.10
2022-12-08T06:10:44.316Z,11.55
2022-12-08T06:13:11.472Z,16.02
2022-12-08T06:15:39.353Z,13.57
2022-12-08T06:18:06.923Z,12.18
2022-12-08T06:20:35.054Z,11.65
2022-12-08T06:23:02.207Z,14.30
2022-12-08T06:25:29.044Z,12.10
2022-12-08T06:27:55.768Z,12.55
2022-12-08T06:30:22.559Z,16.15
2022-12-08T06:32:51.670Z,13.93
2022-12-08T06:35:18.405Z,10.98
2022-12-08T06:37:45.056Z,14.43
2022-12-08T06:40:12.191Z,15.30
2022-12-08T06:42:45.216Z,12.50
2022-12-08T06:45:13.996Z,16.15
2022-12-08T06:47:40.861Z,11.68
2022-12-08T06:50:09.083Z,12.60
2022-12-08T06:52:40.845Z,13.68
2022-12-08T06:55:29.127Z,11.35
2022-12-08T06:57:59.526Z,14.27
2022-12-08T07:00:26.237Z,12.07
2022-12-08T07:02:52.937Z,12.85
2022-12-08T07:05:19.860Z,12.27
2022-12-08T07:07:46.718Z,14.35
2022-12-08T07:10:13.372Z,12.45
2022-12-08T07:12:39.999Z,12.55
2022-12-08T07:15:07.446Z,13.52
2022-12-08T07:17:34.059Z,15.90
2022-12-08T07:20:00.727Z,12.25
2022-12-08T07:22:27.489Z,11.82
2022-12-08T07:24:54.146Z,14.23
2022-12-08T07:27:20.754Z,10.05
2022-12-08T07:29:47.511Z,13.68
2022-12-08T07:32:15.761Z,10.60
2022-12-08T07:35:00.168Z,13.85
2022-12-08T07:37:26.808Z,14.43
2022-12-08T07:39:53.523Z,10.88
2022-12-08T07:42:20.132Z,12.00
2022-12-08T07:44:46.744Z,14.55
2022-12-08T07:47:13.410Z,11.30
2022-12-08T07:49:40.048Z,12.15
2022-12-08T07:52:06.816Z,11.80
2022-12-08T07:54:33.585Z,16.02
2022-12-08T07:57:00.271Z,10.05
2022-12-08T07:59:26.901Z,10.95
2022-12-08T08:02:21.035Z,10.02
2022-12-08T08:04:40.381Z,7.85
2022-12-08T08:07:07.121Z,8.52
2022-12-08T08:09:34.364Z,10.63
2022-12-08T08:12:29.639Z,10.77
2022-12-08T08:14:47.728Z,7.47
2022-12-08T08:17:14.453Z,9.20
2022-12-08T08:19:41.155Z,8.77
2022-12-08T08:22:07.898Z,10.23
2022-12-08T08:24:34.726Z,8.10
2022-12-08T08:27:01.358Z,7.72
2022-12-08T08:29:28.090Z,8.20
2022-12-08T08:31:54.898Z,5.95
2022-12-08T08:34:21.512Z,6.50
2022-12-08T08:36:48.325Z,7.40
2022-12-08T08:39:15.963Z,6.95
2022-12-08T08:41:42.684Z,4.75
2022-12-08T08:44:09.387Z,6.45
2022-12-08T08:46:36.222Z,6.50
2022-12-08T08:49:02.993Z,7.18
2022-12-08T08:51:29.840Z,8.90
2022-12-08T08:53:57.250Z,7.47
2022-12-08T08:56:24.314Z,6.97
2022-12-08T08:58:52.855Z,6.70
2022-12-08T09:01:22.226Z,5.85
2022-12-08T09:03:49.468Z,7.38
2022-12-08T09:06:17.175Z,7.20
2022-12-08T09:08:44.297Z,4.45
2022-12-08T09:11:12.167Z,5.93
2022-12-08T09:13:41.078Z,6.53
2022-12-08T09:16:09.158Z,5.13
2022-12-08T09:18:35.943Z,4.45
2022-12-08T09:21:08.334Z,6.50
2022-12-08T09:23:36.034Z,6.38
2022-12-08T09:26:05.122Z,6.32
2022-12-08T09:28:33.097Z,4.72
2022-12-08T09:31:00.277Z,5.57
2022-12-08T09:33:27.168Z,4.93
2022-12-08T09:35:53.994Z,5.53
2022-12-08T09:38:20.599Z,4.53
2022-12-08T09:40:53.045Z,5.22
2022-12-08T09:43:42.692Z,4.63
2022-12-08T09:46:11.594Z,4.70
2022-12-08T09:48:44.577Z,7.03
2022-12-08T09:51:13.684Z,5.80
2022-12-08T09:53:49.219Z,4.40
2022-12-08T09:56:19.705Z,6.72
2022-12-08T09:59:24.586Z,5.90
2022-12-08T10:01:51.543Z,7.72
2022-12-08T10:04:23.323Z,4.75
2022-12-08T10:06:59.995Z,5.40
2022-12-08T10:09:48.579Z,5.88
2022-12-08T10:12:21.418Z,5.28
2022-12-08T10:14:55.340Z,10.45
2022-12-08T10:17:40.668Z,11.10
2022-12-08T10:20:20.110Z,6.15
2022-12-08T10:22:53.427Z,6.38
2022-12-08T10:25:28.228Z,5.75
2022-12-08T10:28:01.072Z,5.43
2022-12-08T10:30:27.707Z,5.80
2022-12-08T10:32:55.109Z,8.20
2022-12-08T10:35:23.513Z,6.43
2022-12-08T10:38:01.910Z,8.13
2022-12-08T10:40:40.515Z,6.20
2022-12-08T10:43:17.497Z,6.38
2022-12-08T10:45:45.234Z,6.28
2022-12-08T10:48:17.281Z,6.35
2022-12-08T10:50:47.591Z,8.13
2022-12-08T10:53:21.274Z,9.20
2022-12-08T10:55:51.181Z,6.95
2022-12-08T10:58:44.335Z,12.02
2022-12-08T11:01:21.741Z,9.77
2022-12-08T11:03:57.018Z,7.20
2022-12-08T11:06:32.945Z,11.10
2022-12-08T11:11:48.387Z,10.40
2022-12-08T11:14:27.830Z,7.47
2022-12-08T11:17:09.586Z,8.55
2022-12-08T11:19:55.069Z,7.82
2022-12-08T11:22:33.534Z,6.93
2022-12-08T11:25:12.363Z,6.78
2022-12-08T11:27:43.714Z,7.38
2022-12-08T11:30:22.263Z,6.00
2022-12-08T11:32:57.579Z,5.70
2022-12-08T11:35:28.939Z,7.10
2022-12-08T11:38:19.780Z,6.03
2022-12-08T11:40:51.915Z,6.40
2022-12-08T11:43:37.048Z,9.60
2022-12-08T11:46:12.500Z,8.18
2022-12-08T11:48:51.214Z,8.60
2022-12-08T11:51:38.100Z,8.02
2022-12-08T11:54:36.100Z,7.25
2022-12-08T11:57:06.048Z,6.88
2022-12-08T11:59:38.488Z,7.65
2022-12-08T12:02:12.232Z,8.68
2022-12-08T12:05:09.336Z,6.72
2022-12-08T12:08:01.106Z,7.15
2022-12-08T12:11:00.267Z,7.72
2022-12-08T12:13:35.734Z,9.18
2022-12-08T12:16:17.734Z,6.65
2022-12-08T12:18:47.835Z,6.22
2022-12-08T12:21:20.104Z,6.97
2022-12-08T12:23:53.717Z,6.47
2022-12-08T12:26:26.624Z,5.95
2022-12-08T12:28:57.544Z,7.30
2022-12-08T12:31:43.490Z,7.93
2022-12-08T12:34:36.605Z,6.35
2022-12-08T12:37:15.151Z,5.97
2022-12-08T12:39:57.924Z,6.65
2022-12-08T12:42:50.971Z,5.82
2022-12-08T12:45:17.565Z,7.35
2022-12-08T12:47:48.627Z,7.47
2022-12-08T12:50:34.321Z,4.78
2022-12-08T12:53:09.185Z,6.65
2022-12-08T12:56:02.488Z,5.55
2022-12-08T12:58:29.638Z,9.45
2022-12-08T13:01:14.263Z,5.70
2022-12-08T13:03:44.126Z,5.47
2022-12-08T13:06:14.750Z,4.00
2022-12-08T13:08:51.243Z,6.28
2022-12-08T13:11:18.027Z,6.43
2022-12-08T13:13:57.848Z,8.27
2022-12-08T13:16:27.223Z,11.45
2022-12-08T13:18:59.139Z,10.65
2022-12-08T13:21:36.034Z,8.45
2022-12-08T13:24:14.717Z,10.20
2022-12-08T13:26:49.282Z,11.68
2022-12-08T13:29:25.661Z,4.57
2022-12-08T13:31:56.333Z,4.53
2022-12-08T13:34:49.182Z,6.45
2022-12-08T13:37:26.939Z,6.80
2022-12-08T13:40:09.090Z,6.82
2022-12-08T13:42:35.848Z,4.72
2022-12-08T13:45:27.886Z,4.35
2022-12-08T13:48:58.989Z,5.55
2022-12-08T13:57:06.870Z,4.97
2022-12-08T13:59:36.171Z,6.90
2022-12-08T14:02:18.252Z,7.55
2022-12-08T14:07:38.967Z,4.45
2022-12-08T14:10:14.783Z,6.63
2022-12-08T14:12:46.223Z,5.25
2022-12-08T14:15:15.609Z,5.43
2022-12-08T14:17:51.360Z,4.82
2022-12-08T14:20:31.609Z,6.30
2022-12-08T14:22:59.852Z,7.88
2022-12-08T14:25:30.205Z,4.65
2022-12-08T14:28:01.916Z,8.60
2022-12-08T14:30:32.746Z,5.75
2022-12-08T14:33:01.279Z,4.32
2022-12-08T14:35:28.002Z,6.57
2022-12-08T14:37:58.823Z,4.72
2022-12-08T14:40:36.763Z,6.25
2022-12-08T14:43:09.309Z,4.88
2022-12-08T14:45:41.686Z,4.13
2022-12-08T14:48:36.409Z,3.83
2022-12-08T14:51:12.634Z,5.50
2022-12-08T14:53:58.837Z,4.53
2022-12-08T14:59:15.348Z,4.93
2022-12-08T15:01:43.938Z,5.10
2022-12-08T15:04:25.781Z,7.68
2022-12-08T15:07:05.557Z,4.78
2022-12-08T15:09:37.629Z,5.80
2022-12-08T15:12:27.093Z,5.35
2022-12-08T15:15:09.635Z,4.78
2022-12-08T15:17:45.059Z,6.57
2022-12-08T15:20:39.214Z,5.70
2022-12-08T15:23:06.773Z,7.50
2022-12-08T15:25:33.608Z,5.65
2022-12-08T15:28:02.643Z,6.82
2022-12-08T15:30:30.005Z,6.97
2022-12-08T15:32:57.655Z,5.55
2022-12-08T15:35:24.291Z,5.35
2022-12-08T15:37:51.094Z,7.25
2022-12-08T15:40:20.012Z,7.22
2022-12-08T15:42:47.051Z,8.35
2022-12-08T15:45:15.412Z,8.77
2022-12-08T15:47:43.464Z,7.38
2022-12-08T15:50:18.658Z,8.18
2022-12-08T15:52:45.444Z,8.00
2022-12-08T15:55:14.076Z,6.75
2022-12-08T15:58:44.555Z,6.80
2022-12-08T16:04:19.948Z,12.80
2022-12-08T16:09:13.463Z,12.35
2022-12-08T16:12:08.412Z,11.30
2022-12-08T16:17:24.195Z,15.52
2022-12-08T16:19:53.551Z,11.95
2022-12-08T16:25:20.344Z,15.43
2022-12-08T16:28:12.565Z,17.08
2022-12-08T16:30:40.557Z,16.67
2022-12-08T16:33:07.392Z,20.52
2022-12-08T16:35:34.155Z,16.73
2022-12-08T16:38:01.130Z,18.35
2022-12-08T16:40:31.213Z,13.80
2022-12-08T16:42:58.615Z,17.05
2022-12-08T16:45:31.038Z,19.27
2022-12-08T16:48:01.830Z,26.63
2022-12-08T16:50:31.272Z,26.48
2022-12-08T16:53:04.768Z,20.17
2022-12-08T16:55:31.780Z,21.70
2022-12-08T16:57:58.640Z,19.65
2022-12-08T17:00:28.552Z,21.85
2022-12-08T17:02:55.946Z,21.02
2022-12-08T17:05:25.070Z,20.67
2022-12-08T17:07:53.625Z,22.30
2022-12-08T17:10:23.597Z,21.25
2022-12-08T17:12:50.420Z,17.50
2022-12-08T17:15:19.801Z,19.10
2022-12-08T17:17:47.069Z,17.48
2022-12-08T17:20:19.464Z,15.35
2022-12-08T17:22:46.452Z,15.98
2022-12-08T17:25:13.649Z,17.92
2022-12-08T17:27:40.908Z,17.58
2022-12-08T17:30:09.922Z,18.42
2022-12-08T17:32:38.073Z,16.55
2022-12-08T17:35:05.781Z,20.60
2022-12-08T17:37:32.834Z,17.95
2022-12-08T17:39:59.655Z,15.07
2022-12-08T17:42:27.324Z,16.92
2022-12-08T17:44:54.943Z,13.73
2022-12-08T17:47:22.278Z,18.33
2022-12-08T17:49:49.053Z,16.05
2022-12-08T17:52:15.782Z,18.60
2022-12-08T17:54:42.576Z,17.05
2022-12-08T17:57:09.251Z,17.00
2022-12-08T17:59:35.937Z,16.00
2022-12-08T18:02:05.054Z,12.63
2022-12-08T18:04:31.843Z,17.23
2022-12-08T18:07:03.924Z,16.15
2022-12-08T18:09:31.438Z,20.55
2022-12-08T18:11:58.247Z,19.98
2022-12-08T18:14:24.937Z,15.75
2022-12-08T18:16:51.958Z,17.27
2022-12-08T18:19:18.754Z,15.02
2022-12-08T18:21:45.483Z,15.63
2022-12-08T18:24:19.364Z,19.83
2022-12-08T18:26:47.228Z,14.38
2022-12-08T18:29:13.885Z,16.15
2022-12-08T18:31:40.613Z,14.15
2022-12-08T18:34:07.269Z,19.15
2022-12-08T18:36:34.053Z,19.60
2022-12-08T18:39:05.834Z,15.55
2022-12-08T18:41:35.564Z,17.17
2022-12-08T18:44:02.424Z,22.08
2022-12-08T18:46:29.700Z,21.23
2022-12-08T18:48:56.384Z,21.60
2022-12-08T18:51:24.483Z,19.77
2022-12-08T18:53:52.309Z,16.98
2022-12-08T18:56:23.881Z,20.08
2022-12-08T18:58:50.612Z,22.48
2022-12-08T19:01:17.716Z,17.73
2022-12-08T19:03:58.507Z,16.02
2022-12-08T19:06:31.625Z,15.93
2022-12-08T19:08:58.700Z,21.33
2022-12-08T19:11:27.683Z,18.65
2022-12-08T19:13:55.690Z,17.70
2022-12-08T19:16:26.095Z,17.48
2022-12-08T19:18:53.424Z,20.25
2022-12-08T19:21:22.561Z,22.95
2022-12-08T19:23:49.509Z,24.90
2022-12-08T19:26:26.840Z,31.25
2022-12-08T19:28:58.141Z,33.78
2022-12-08T19:34:14.170Z,32.03
2022-12-08T19:36:59.072Z,33.65
2022-12-08T19:39:46.382Z,29.23
2022-12-08T19:42:41.317Z,29.25
2022-12-08T19:45:26.272Z,28.63
2022-12-08T19:47:59.313Z,26.20
2022-12-08T19:50:40.959Z,25.63
2022-12-08T19:53:14.848Z,23.95
2022-12-08T19:55:48.982Z,23.60
2022-12-08T19:58:15.967Z,24.65
2022-12-08T20:00:46.801Z,25.60
2022-12-08T20:03:19.947Z,23.60
2022-12-08T20:05:57.512Z,20.25
2022-12-08T20:08:24.839Z,27.15
2022-12-08T20:10:59.496Z,29.10
2022-12-08T20:13:42.094Z,28.45
2022-12-08T20:16:10.056Z,24.80
2022-12-08T20:18:48.431Z,23.83
2022-12-08T20:21:23.344Z,22.35
2022-12-08T20:23:50.548Z,20.30
2022-12-08T20:26:23.965Z,26.15
2022-12-08T20:28:51.216Z,25.30
2022-12-08T20:31:26.824Z,22.05
2022-12-08T20:34:05.799Z,18.88
2022-12-08T20:36:32.978Z,22.08
2022-12-08T20:38:59.726Z,16.65
2022-12-08T20:41:27.578Z,18.88
2022-12-08T20:43:54.552Z,19.75
2022-12-08T20:46:25.166Z,17.80
2022-12-08T20:48:52.765Z,18.83
2022-12-08T20:51:19.953Z,20.90
2022-12-08T20:53:47.551Z,14.18
2022-12-08T20:56:18.965Z,17.30
2022-12-08T20:58:46.162Z,19.33
2022-12-08T21:01:15.745Z,18.55
2022-12-08T21:03:44.820Z,27.55
2022-12-08T21:06:12.771Z,24.92
2022-12-08T21:08:40.317Z,26.95
2022-12-08T21:11:08.040Z,23.42
2022-12-08T21:13:37.161Z,29.25
2022-12-08T21:16:04.934Z,27.00
2022-12-08T21:18:38.928Z,25.60
2022-12-08T21:21:12.743Z,22.23
2022-12-08T21:23:40.527Z,20.95
2022-12-08T21:26:15.594Z,25.25
2022-12-08T21:28:43.265Z,22.57
2022-12-08T21:31:12.535Z,20.67
2022-12-08T21:33:39.707Z,20.60
2022-12-08T21:36:09.789Z,25.67
2022-12-08T21:38:37.821Z,30.60
2022-12-08T21:41:16.139Z,25.67
2022-12-08T21:43:43.731Z,27.10
2022-12-08T21:46:19.480Z,23.25
2022-12-08T21:48:46.533Z,24.80
2022-12-08T21:51:13.294Z,29.77
2022-12-08T21:53:40.167Z,23.77
2022-12-08T21:56:10.285Z,23.05
2022-12-08T21:58:37.290Z,20.10
2022-12-08T22:01:08.846Z,19.38
2022-12-08T22:03:36.475Z,20.83
2022-12-08T22:06:11.522Z,20.38
2022-12-08T22:08:39.646Z,18.50
2022-12-08T22:11:08.108Z,20.75
2022-12-08T22:13:36.726Z,20.70
2022-12-08T22:16:06.188Z,19.33
2022-12-08T22:18:34.034Z,17.25
2022-12-08T22:21:01.250Z,24.42
2022-12-08T22:23:28.983Z,20.50
2022-12-08T22:26:00.072Z,21.02
2022-12-08T22:28:31.849Z,24.17
2022-12-08T22:30:58.735Z,22.10
2022-12-08T22:33:25.624Z,24.88
2022-12-08T22:36:03.515Z,25.52
2022-12-08T22:38:35.141Z,20.08
2022-12-08T22:41:04.997Z,21.70
2022-12-08T22:43:31.915Z,24.55
2022-12-08T22:45:58.858Z,26.65
2022-12-08T22:48:26.769Z,23.17
2022-12-08T22:50:59.759Z,25.00
2022-12-08T22:53:26.876Z,22.98
2022-12-08T22:55:53.792Z,22.73
2022-12-08T22:58:20.568Z,20.88
2022-12-08T23:00:47.829Z,24.83
2022-12-08T23:03:14.598Z,21.42
2022-12-08T23:05:41.628Z,23.98
2022-12-08T23:08:09.371Z,19.35
2022-12-08T23:10:36.341Z,22.65
2022-12-08T23:13:04.209Z,24.02
2022-12-08T23:15:31.616Z,24.48
2022-12-08T23:17:58.714Z,22.45
2022-12-08T23:20:25.786Z,21.70
2022-12-08T23:22:52.636Z,18.58
2022-12-08T23:25:19.485Z,23.38
2022-12-08T23:27:46.538Z,24.17
2022-12-08T23:30:14.155Z,18.35
2022-12-08T23:32:41.673Z,20.95
2022-12-08T23:35:09.041Z,21.20
2022-12-08T23:37:35.853Z,23.55
2022-12-08T23:40:03.045Z,26.20
2022-12-08T23:42:30.593Z,22.30
2022-12-08T23:44:57.541Z,26.85
2022-12-08T23:47:24.369Z,18.10
2022-12-08T23:49:51.183Z,23.23
2022-12-08T23:52:18.176Z,23.05
2022-12-08T23:54:45.140Z,17.77
2022-12-08T23:57:11.950Z,23.15
2022-12-08T23:59:39.122Z,20.63
